sensor_id;sensor_type;location;lat;lon;timestamp;temperature;humidity
38910;DHT22;24676;51.360;12.354;2023-01-31T00:00:26;4.00;99.90
38910;DHT22;24676;51.360;12.354;2023-01-31T00:03:10;3.90;99.90
38910;DHT22;24676;51.360;12.354;2023-01-31T00:05:55;3.90;99.90
38910;DHT22;24676;51.360;12.354;2023-01-31T00:08:40;3.90;99.90
38910;DHT22;24676;51.360;12.354;2023-01-31T00:11:26;3.90;99.90
38910;DHT22;24676;51.360;12.354;2023-01-31T00:14:16;3.90;99.90
38910;DHT22;24676;51.360;12.354;2023-01-31T00:17:01;4.00;99.90
38910;DHT22;24676;51.360;12.354;2023-01-31T00:19:46;4.00;99.90
38910;DHT22;24676;51.360;12.354;2023-01-31T00:22:30;4.00;99.90
38910;DHT22;24676;51.360;12.354;2023-01-31T00:25:14;4.00;99.90
38910;DHT22;24676;51.360;12.354;2023-01-31T00:27:58;4.10;99.90
38910;DHT22;24676;51.360;12.354;2023-01-31T00:30:43;4.10;99.90
38910;DHT22;24676;51.360;12.354;2023-01-31T00:33:27;4.00;99.90
38910;DHT22;24676;51.360;12.354;2023-01-31T00:36:14;4.00;99.90
38910;DHT22;24676;51.360;12.354;2023-01-31T00:39:01;4.00;99.90
38910;DHT22;24676;51.360;12.354;2023-01-31T00:41:45;4.10;99.90
38910;DHT22;24676;51.360;12.354;2023-01-31T00:44:30;4.00;99.90
38910;DHT22;24676;51.360;12.354;2023-01-31T00:47:14;4.10;99.90
38910;DHT22;24676;51.360;12.354;2023-01-31T00:49:59;4.10;99.90
38910;DHT22;24676;51.360;12.354;2023-01-31T00:52:43;4.10;99.90
38910;DHT22;24676;51.360;12.354;2023-01-31T00:55:27;4.20;99.90
38910;DHT22;24676;51.360;12.354;2023-01-31T00:58:12;4.20;99.90
38910;DHT22;24676;51.360;12.354;2023-01-31T01:01:03;4.20;99.90
38910;DHT22;24676;51.360;12.354;2023-01-31T01:03:48;4.00;99.90
38910;DHT22;24676;51.360;12.354;2023-01-31T01:06:32;3.90;99.90
38910;DHT22;24676;51.360;12.354;2023-01-31T01:09:17;3.70;99.90
38910;DHT22;24676;51.360;12.354;2023-01-31T01:12:01;3.60;99.90
38910;DHT22;24676;51.360;12.354;2023-01-31T01:14:46;3.60;99.90
38910;DHT22;24676;51.360;12.354;2023-01-31T01:17:30;3.50;99.90
38910;DHT22;24676;51.360;12.354;2023-01-31T01:20:14;3.50;99.90
38910;DHT22;24676;51.360;12.354;2023-01-31T01:22:59;3.60;99.90
38910;DHT22;24676;51.360;12.354;2023-01-31T01:25:44;3.60;99.90
38910;DHT22;24676;51.360;12.354;2023-01-31T01:28:28;3.50;99.90
38910;DHT22;24676;51.360;12.354;2023-01-31T01:31:18;3.50;99.90
38910;DHT22;24676;51.360;12.354;2023-01-31T01:34:07;3.50;99.90
38910;DHT22;24676;51.360;12.354;2023-01-31T01:36:52;3.50;99.90
38910;DHT22;24676;51.360;12.354;2023-01-31T01:39:38;3.50;99.90
38910;DHT22;24676;51.360;12.354;2023-01-31T01:42:24;3.50;99.90
38910;DHT22;24676;51.360;12.354;2023-01-31T01:45:13;3.60;99.90
38910;DHT22;24676;51.360;12.354;2023-01-31T01:48:03;3.60;99.90
38910;DHT22;24676;51.360;12.354;2023-01-31T01:50:50;3.60;99.90
38910;DHT22;24676;51.360;12.354;2023-01-31T01:53:38;3.60;99.90
38910;DHT22;24676;51.360;12.354;2023-01-31T01:56:27;3.60;99.90
38910;DHT22;24676;51.360;12.354;2023-01-31T01:59:22;3.60;99.90
38910;DHT22;24676;51.360;12.354;2023-01-31T02:02:08;3.60;99.90
38910;DHT22;24676;51.360;12.354;2023-01-31T02:04:52;3.60;99.90
38910;DHT22;24676;51.360;12.354;2023-01-31T02:07:36;3.70;99.90
38910;DHT22;24676;51.360;12.354;2023-01-31T02:13:15;3.70;99.90
38910;DHT22;24676;51.360;12.354;2023-01-31T02:16:00;3.70;99.90
38910;DHT22;24676;51.360;12.354;2023-01-31T02:18:44;3.70;99.90
38910;DHT22;24676;51.360;12.354;2023-01-31T02:37:16;3.70;99.90
38910;DHT22;24676;51.360;12.354;2023-01-31T02:43:05;3.80;99.90
38910;DHT22;24676;51.360;12.354;2023-01-31T02:46:09;3.90;99.90
38910;DHT22;24676;51.360;12.354;2023-01-31T02:49:06;3.90;99.90
38910;DHT22;24676;51.360;12.354;2023-01-31T02:51:52;3.90;99.90
38910;DHT22;24676;51.360;12.354;2023-01-31T02:55:17;3.90;99.90
38910;DHT22;24676;51.360;12.354;2023-01-31T02:58:26;3.80;99.90
38910;DHT22;24676;51.360;12.354;2023-01-31T03:01:17;3.80;99.90
38910;DHT22;24676;51.360;12.354;2023-01-31T03:04:11;3.80;99.90
38910;DHT22;24676;51.360;12.354;2023-01-31T03:10:40;3.80;99.90
38910;DHT22;24676;51.360;12.354;2023-01-31T03:13:53;3.80;99.90
38910;DHT22;24676;51.360;12.354;2023-01-31T03:16:55;3.80;99.90
38910;DHT22;24676;51.360;12.354;2023-01-31T03:20:23;3.90;99.90
38910;DHT22;24676;51.360;12.354;2023-01-31T03:23:17;3.90;99.90
38910;DHT22;24676;51.360;12.354;2023-01-31T03:26:03;3.90;99.90
38910;DHT22;24676;51.360;12.354;2023-01-31T03:28:49;3.80;99.90
38910;DHT22;24676;51.360;12.354;2023-01-31T03:31:48;3.90;99.90
38910;DHT22;24676;51.360;12.354;2023-01-31T03:34:36;3.90;99.90
38910;DHT22;24676;51.360;12.354;2023-01-31T03:40:20;3.80;99.90
38910;DHT22;24676;51.360;12.354;2023-01-31T03:46:22;3.80;99.90
38910;DHT22;24676;51.360;12.354;2023-01-31T03:49:11;3.70;99.90
38910;DHT22;24676;51.360;12.354;2023-01-31T03:52:04;3.80;99.90
38910;DHT22;24676;51.360;12.354;2023-01-31T03:54:57;3.70;99.90
38910;DHT22;24676;51.360;12.354;2023-01-31T03:57:45;3.80;99.90
38910;DHT22;24676;51.360;12.354;2023-01-31T04:00:34;3.80;99.90
38910;DHT22;24676;51.360;12.354;2023-01-31T04:03:25;3.80;99.90
38910;DHT22;24676;51.360;12.354;2023-01-31T04:06:11;3.80;99.90
38910;DHT22;24676;51.360;12.354;2023-01-31T04:08:56;3.80;99.90
38910;DHT22;24676;51.360;12.354;2023-01-31T04:11:41;3.80;99.90
38910;DHT22;24676;51.360;12.354;2023-01-31T04:14:29;3.90;99.90
38910;DHT22;24676;51.360;12.354;2023-01-31T04:17:14;3.80;99.90
38910;DHT22;24676;51.360;12.354;2023-01-31T04:19:58;3.80;99.90
38910;DHT22;24676;51.360;12.354;2023-01-31T04:22:42;3.80;99.90
38910;DHT22;24676;51.360;12.354;2023-01-31T04:25:26;3.80;99.90
38910;DHT22;24676;51.360;12.354;2023-01-31T04:28:11;3.70;99.90
38910;DHT22;24676;51.360;12.354;2023-01-31T04:30:56;3.60;99.90
38910;DHT22;24676;51.360;12.354;2023-01-31T04:33:40;3.50;99.90
38910;DHT22;24676;51.360;12.354;2023-01-31T04:36:24;3.40;99.90
38910;DHT22;24676;51.360;12.354;2023-01-31T04:39:09;3.40;99.90
38910;DHT22;24676;51.360;12.354;2023-01-31T04:41:54;3.40;99.90
38910;DHT22;24676;51.360;12.354;2023-01-31T04:44:39;3.40;99.90
38910;DHT22;24676;51.360;12.354;2023-01-31T04:47:23;3.40;99.90
38910;DHT22;24676;51.360;12.354;2023-01-31T04:50:08;3.40;99.90
38910;DHT22;24676;51.360;12.354;2023-01-31T04:52:52;3.40;99.90
38910;DHT22;24676;51.360;12.354;2023-01-31T04:55:36;3.40;99.90
38910;DHT22;24676;51.360;12.354;2023-01-31T04:58:21;3.40;99.90
38910;DHT22;24676;51.360;12.354;2023-01-31T05:01:06;3.40;99.90
38910;DHT22;24676;51.360;12.354;2023-01-31T05:03:51;3.40;99.90
38910;DHT22;24676;51.360;12.354;2023-01-31T05:06:36;3.40;99.90
38910;DHT22;24676;51.360;12.354;2023-01-31T05:09:20;3.40;99.90
38910;DHT22;24676;51.360;12.354;2023-01-31T05:12:06;3.30;99.90
38910;DHT22;24676;51.360;12.354;2023-01-31T05:14:50;3.30;99.90
38910;DHT22;24676;51.360;12.354;2023-01-31T05:17:35;3.30;99.90
38910;DHT22;24676;51.360;12.354;2023-01-31T05:20:19;3.30;99.90
38910;DHT22;24676;51.360;12.354;2023-01-31T05:23:04;3.30;99.90
38910;DHT22;24676;51.360;12.354;2023-01-31T05:25:49;3.30;99.90
38910;DHT22;24676;51.360;12.354;2023-01-31T05:28:33;3.30;99.90
38910;DHT22;24676;51.360;12.354;2023-01-31T05:31:18;3.20;99.90
38910;DHT22;24676;51.360;12.354;2023-01-31T05:34:02;3.20;99.90
38910;DHT22;24676;51.360;12.354;2023-01-31T05:36:47;3.20;99.90
38910;DHT22;24676;51.360;12.354;2023-01-31T05:39:31;3.20;99.90
38910;DHT22;24676;51.360;12.354;2023-01-31T05:42:15;3.20;99.90
38910;DHT22;24676;51.360;12.354;2023-01-31T05:44:59;3.20;99.90
38910;DHT22;24676;51.360;12.354;2023-01-31T05:47:46;3.20;99.90
38910;DHT22;24676;51.360;12.354;2023-01-31T05:50:30;3.20;99.90
38910;DHT22;24676;51.360;12.354;2023-01-31T05:53:15;3.20;99.90
38910;DHT22;24676;51.360;12.354;2023-01-31T05:55:59;3.20;99.90
38910;DHT22;24676;51.360;12.354;2023-01-31T05:58:43;3.30;99.90
38910;DHT22;24676;51.360;12.354;2023-01-31T06:01:31;3.30;99.90
38910;DHT22;24676;51.360;12.354;2023-01-31T06:04:15;3.40;99.90
38910;DHT22;24676;51.360;12.354;2023-01-31T06:07:00;3.50;99.90
38910;DHT22;24676;51.360;12.354;2023-01-31T06:09:44;3.60;99.90
38910;DHT22;24676;51.360;12.354;2023-01-31T06:12:29;3.60;99.90
38910;DHT22;24676;51.360;12.354;2023-01-31T06:15:12;3.50;99.90
38910;DHT22;24676;51.360;12.354;2023-01-31T06:17:57;3.60;99.90
38910;DHT22;24676;51.360;12.354;2023-01-31T06:20:42;3.60;99.90
38910;DHT22;24676;51.360;12.354;2023-01-31T06:23:27;3.70;99.90
38910;DHT22;24676;51.360;12.354;2023-01-31T06:26:11;3.80;99.90
38910;DHT22;24676;51.360;12.354;2023-01-31T06:28:55;3.80;99.90
38910;DHT22;24676;51.360;12.354;2023-01-31T06:31:43;3.90;99.90
38910;DHT22;24676;51.360;12.354;2023-01-31T06:34:28;3.80;99.90
38910;DHT22;24676;51.360;12.354;2023-01-31T06:37:12;3.80;99.90
38910;DHT22;24676;51.360;12.354;2023-01-31T06:39:57;3.80;99.90
38910;DHT22;24676;51.360;12.354;2023-01-31T06:42:42;3.80;99.90
38910;DHT22;24676;51.360;12.354;2023-01-31T06:45:26;3.80;99.90
38910;DHT22;24676;51.360;12.354;2023-01-31T06:48:11;3.80;99.90
38910;DHT22;24676;51.360;12.354;2023-01-31T06:50:56;3.80;99.90
38910;DHT22;24676;51.360;12.354;2023-01-31T06:53:40;3.70;99.90
38910;DHT22;24676;51.360;12.354;2023-01-31T06:56:25;3.70;99.90
38910;DHT22;24676;51.360;12.354;2023-01-31T06:59:09;3.70;99.90
38910;DHT22;24676;51.360;12.354;2023-01-31T07:01:53;3.70;99.90
38910;DHT22;24676;51.360;12.354;2023-01-31T07:04:37;3.70;99.90
38910;DHT22;24676;51.360;12.354;2023-01-31T07:07:21;3.70;99.90
38910;DHT22;24676;51.360;12.354;2023-01-31T07:10:06;3.70;99.90
38910;DHT22;24676;51.360;12.354;2023-01-31T07:12:51;3.80;99.90
38910;DHT22;24676;51.360;12.354;2023-01-31T07:15:35;3.80;99.90
38910;DHT22;24676;51.360;12.354;2023-01-31T07:18:19;3.80;99.90
38910;DHT22;24676;51.360;12.354;2023-01-31T07:21:03;3.80;99.90
38910;DHT22;24676;51.360;12.354;2023-01-31T07:23:49;4.10;99.90
38910;DHT22;24676;51.360;12.354;2023-01-31T07:26:34;4.30;99.90
38910;DHT22;24676;51.360;12.354;2023-01-31T07:29:18;4.40;99.90
38910;DHT22;24676;51.360;12.354;2023-01-31T07:32:02;4.50;99.90
38910;DHT22;24676;51.360;12.354;2023-01-31T07:34:46;4.50;99.90
38910;DHT22;24676;51.360;12.354;2023-01-31T07:37:31;4.60;99.90
38910;DHT22;24676;51.360;12.354;2023-01-31T07:40:16;4.60;99.90
38910;DHT22;24676;51.360;12.354;2023-01-31T07:43:00;4.50;99.90
38910;DHT22;24676;51.360;12.354;2023-01-31T07:45:44;4.50;99.90
38910;DHT22;24676;51.360;12.354;2023-01-31T07:48:28;4.50;99.90
38910;DHT22;24676;51.360;12.354;2023-01-31T07:51:12;4.40;99.90
38910;DHT22;24676;51.360;12.354;2023-01-31T07:53:56;4.50;99.90
38910;DHT22;24676;51.360;12.354;2023-01-31T07:56:40;4.60;99.90
38910;DHT22;24676;51.360;12.354;2023-01-31T07:59:24;4.80;99.90
38910;DHT22;24676;51.360;12.354;2023-01-31T08:02:11;4.90;99.90
38910;DHT22;24676;51.360;12.354;2023-01-31T08:05:15;5.20;99.90
38910;DHT22;24676;51.360;12.354;2023-01-31T08:07:59;5.40;99.90
38910;DHT22;24676;51.360;12.354;2023-01-31T08:10:53;5.30;99.90
38910;DHT22;24676;51.360;12.354;2023-01-31T08:13:37;5.20;99.90
38910;DHT22;24676;51.360;12.354;2023-01-31T08:16:22;5.10;99.90
38910;DHT22;24676;51.360;12.354;2023-01-31T08:19:07;5.00;99.90
38910;DHT22;24676;51.360;12.354;2023-01-31T08:21:51;5.00;99.90
38910;DHT22;24676;51.360;12.354;2023-01-31T08:24:36;5.00;99.90
38910;DHT22;24676;51.360;12.354;2023-01-31T08:27:20;5.00;99.90
38910;DHT22;24676;51.360;12.354;2023-01-31T08:30:05;5.00;99.90
38910;DHT22;24676;51.360;12.354;2023-01-31T08:32:50;5.00;99.90
38910;DHT22;24676;51.360;12.354;2023-01-31T08:35:35;5.10;99.90
38910;DHT22;24676;51.360;12.354;2023-01-31T08:38:19;5.00;99.90
38910;DHT22;24676;51.360;12.354;2023-01-31T08:41:04;5.00;99.90
38910;DHT22;24676;51.360;12.354;2023-01-31T08:43:49;5.00;99.90
38910;DHT22;24676;51.360;12.354;2023-01-31T08:46:35;4.90;99.90
38910;DHT22;24676;51.360;12.354;2023-01-31T08:49:20;4.90;99.90
38910;DHT22;24676;51.360;12.354;2023-01-31T08:52:04;4.90;99.90
38910;DHT22;24676;51.360;12.354;2023-01-31T08:54:49;4.90;99.90
38910;DHT22;24676;51.360;12.354;2023-01-31T08:57:33;4.90;99.90
38910;DHT22;24676;51.360;12.354;2023-01-31T09:00:19;5.00;99.90
38910;DHT22;24676;51.360;12.354;2023-01-31T09:03:03;5.00;99.90
38910;DHT22;24676;51.360;12.354;2023-01-31T09:05:47;4.90;99.90
38910;DHT22;24676;51.360;12.354;2023-01-31T09:08:32;5.00;99.90
38910;DHT22;24676;51.360;12.354;2023-01-31T09:11:16;5.40;99.90
38910;DHT22;24676;51.360;12.354;2023-01-31T09:14:02;5.30;99.90
38910;DHT22;24676;51.360;12.354;2023-01-31T09:16:46;5.20;99.90
38910;DHT22;24676;51.360;12.354;2023-01-31T09:19:30;5.20;99.90
38910;DHT22;24676;51.360;12.354;2023-01-31T09:22:14;5.20;99.90
38910;DHT22;24676;51.360;12.354;2023-01-31T09:24:59;5.10;99.90
38910;DHT22;24676;51.360;12.354;2023-01-31T09:27:43;5.20;99.90
38910;DHT22;24676;51.360;12.354;2023-01-31T09:30:28;5.20;99.90
38910;DHT22;24676;51.360;12.354;2023-01-31T09:33:12;5.20;99.90
38910;DHT22;24676;51.360;12.354;2023-01-31T09:36:05;5.20;99.90
38910;DHT22;24676;51.360;12.354;2023-01-31T09:38:54;5.20;99.90
38910;DHT22;24676;51.360;12.354;2023-01-31T09:41:46;5.30;99.90
38910;DHT22;24676;51.360;12.354;2023-01-31T09:44:32;5.30;99.90
38910;DHT22;24676;51.360;12.354;2023-01-31T09:47:23;5.20;99.90
38910;DHT22;24676;51.360;12.354;2023-01-31T09:50:42;5.20;99.90
38910;DHT22;24676;51.360;12.354;2023-01-31T09:53:29;5.30;99.90
38910;DHT22;24676;51.360;12.354;2023-01-31T09:59:29;5.30;99.90
38910;DHT22;24676;51.360;12.354;2023-01-31T10:02:47;5.40;99.90
38910;DHT22;24676;51.360;12.354;2023-01-31T10:08:53;5.60;99.90
38910;DHT22;24676;51.360;12.354;2023-01-31T10:11:50;5.60;99.90
38910;DHT22;24676;51.360;12.354;2023-01-31T10:14:46;5.70;99.90
38910;DHT22;24676;51.360;12.354;2023-01-31T10:17:37;5.80;99.90
38910;DHT22;24676;51.360;12.354;2023-01-31T10:23:23;6.40;99.90
38910;DHT22;24676;51.360;12.354;2023-01-31T10:26:13;6.50;99.90
38910;DHT22;24676;51.360;12.354;2023-01-31T10:34:44;6.10;99.90
38910;DHT22;24676;51.360;12.354;2023-01-31T10:37:45;6.10;99.90
38910;DHT22;24676;51.360;12.354;2023-01-31T10:40:38;6.10;99.90
38910;DHT22;24676;51.360;12.354;2023-01-31T10:43:46;6.10;99.90
38910;DHT22;24676;51.360;12.354;2023-01-31T10:46:34;6.10;99.90
38910;DHT22;24676;51.360;12.354;2023-01-31T10:49:20;6.10;99.90
38910;DHT22;24676;51.360;12.354;2023-01-31T10:55:22;6.00;99.90
38910;DHT22;24676;51.360;12.354;2023-01-31T10:58:16;5.90;99.90
38910;DHT22;24676;51.360;12.354;2023-01-31T11:01:05;5.80;99.90
38910;DHT22;24676;51.360;12.354;2023-01-31T11:03:59;5.70;99.90
38910;DHT22;24676;51.360;12.354;2023-01-31T11:06:44;5.70;99.90
38910;DHT22;24676;51.360;12.354;2023-01-31T11:09:32;5.70;99.90
38910;DHT22;24676;51.360;12.354;2023-01-31T11:12:17;5.70;99.90
38910;DHT22;24676;51.360;12.354;2023-01-31T11:15:14;5.70;99.90
38910;DHT22;24676;51.360;12.354;2023-01-31T11:17:59;5.70;99.90
38910;DHT22;24676;51.360;12.354;2023-01-31T11:20:45;5.70;99.90
38910;DHT22;24676;51.360;12.354;2023-01-31T11:23:31;5.60;99.90
38910;DHT22;24676;51.360;12.354;2023-01-31T11:26:31;5.60;99.90
38910;DHT22;24676;51.360;12.354;2023-01-31T11:29:24;5.60;99.90
38910;DHT22;24676;51.360;12.354;2023-01-31T11:32:19;5.50;99.90
38910;DHT22;24676;51.360;12.354;2023-01-31T11:38:00;5.50;99.90
38910;DHT22;24676;51.360;12.354;2023-01-31T11:40:45;5.50;99.90
38910;DHT22;24676;51.360;12.354;2023-01-31T11:43:31;5.40;99.90
38910;DHT22;24676;51.360;12.354;2023-01-31T11:46:15;5.40;99.90
38910;DHT22;24676;51.360;12.354;2023-01-31T11:48:59;5.50;99.90
38910;DHT22;24676;51.360;12.354;2023-01-31T11:51:53;5.50;99.90
38910;DHT22;24676;51.360;12.354;2023-01-31T11:54:41;5.50;99.90
38910;DHT22;24676;51.360;12.354;2023-01-31T11:57:33;5.60;99.90
38910;DHT22;24676;51.360;12.354;2023-01-31T12:00:24;5.50;99.90
38910;DHT22;24676;51.360;12.354;2023-01-31T12:03:14;5.50;99.90
38910;DHT22;24676;51.360;12.354;2023-01-31T12:06:05;5.50;99.90
38910;DHT22;24676;51.360;12.354;2023-01-31T12:08:53;5.50;99.90
38910;DHT22;24676;51.360;12.354;2023-01-31T12:11:52;5.40;99.90
38910;DHT22;24676;51.360;12.354;2023-01-31T12:14:40;5.50;99.90
38910;DHT22;24676;51.360;12.354;2023-01-31T12:17:30;5.50;99.90
38910;DHT22;24676;51.360;12.354;2023-01-31T12:23:40;5.60;99.90
38910;DHT22;24676;51.360;12.354;2023-01-31T12:26:36;5.60;99.90
38910;DHT22;24676;51.360;12.354;2023-01-31T12:47:29;5.60;99.90
38910;DHT22;24676;51.360;12.354;2023-01-31T12:50:57;5.60;99.90
38910;DHT22;24676;51.360;12.354;2023-01-31T12:54:00;5.60;99.90
38910;DHT22;24676;51.360;12.354;2023-01-31T12:59:41;5.70;99.90
38910;DHT22;24676;51.360;12.354;2023-01-31T13:05:46;5.60;99.90
38910;DHT22;24676;51.360;12.354;2023-01-31T13:08:32;5.60;99.90
38910;DHT22;24676;51.360;12.354;2023-01-31T13:11:22;5.60;99.90
38910;DHT22;24676;51.360;12.354;2023-01-31T13:14:16;5.60;99.90
38910;DHT22;24676;51.360;12.354;2023-01-31T13:17:06;5.50;99.90
38910;DHT22;24676;51.360;12.354;2023-01-31T13:23:02;5.40;99.90
38910;DHT22;24676;51.360;12.354;2023-01-31T13:32:03;5.50;99.90
38910;DHT22;24676;51.360;12.354;2023-01-31T13:35:20;5.50;99.90
38910;DHT22;24676;51.360;12.354;2023-01-31T13:38:10;5.60;99.90
38910;DHT22;24676;51.360;12.354;2023-01-31T13:40:56;5.60;99.90
38910;DHT22;24676;51.360;12.354;2023-01-31T13:43:41;5.70;99.90
38910;DHT22;24676;51.360;12.354;2023-01-31T13:46:41;5.70;99.90
38910;DHT22;24676;51.360;12.354;2023-01-31T13:49:37;5.70;99.90
38910;DHT22;24676;51.360;12.354;2023-01-31T13:55:38;5.70;99.90
38910;DHT22;24676;51.360;12.354;2023-01-31T13:58:23;5.70;99.90
38910;DHT22;24676;51.360;12.354;2023-01-31T14:01:22;5.60;99.90
38910;DHT22;24676;51.360;12.354;2023-01-31T14:12:36;5.50;99.90
38910;DHT22;24676;51.360;12.354;2023-01-31T14:15:49;5.50;99.90
38910;DHT22;24676;51.360;12.354;2023-01-31T14:18:40;5.50;99.90
38910;DHT22;24676;51.360;12.354;2023-01-31T14:24:19;5.50;99.90
38910;DHT22;24676;51.360;12.354;2023-01-31T14:39:39;5.40;99.90
38910;DHT22;24676;51.360;12.354;2023-01-31T14:48:25;5.10;99.90
38910;DHT22;24676;51.360;12.354;2023-01-31T14:57:23;4.90;99.90
38910;DHT22;24676;51.360;12.354;2023-01-31T15:03:12;4.70;99.90
38910;DHT22;24676;51.360;12.354;2023-01-31T15:06:13;4.70;99.90
38910;DHT22;24676;51.360;12.354;2023-01-31T15:15:34;4.60;99.90
38910;DHT22;24676;51.360;12.354;2023-01-31T15:18:20;4.60;99.90
38910;DHT22;24676;51.360;12.354;2023-01-31T15:21:10;4.50;99.90
38910;DHT22;24676;51.360;12.354;2023-01-31T15:23:55;4.50;99.90
38910;DHT22;24676;51.360;12.354;2023-01-31T15:26:40;4.50;99.90
38910;DHT22;24676;51.360;12.354;2023-01-31T15:29:33;4.60;99.90
38910;DHT22;24676;51.360;12.354;2023-01-31T15:32:25;4.50;99.90
38910;DHT22;24676;51.360;12.354;2023-01-31T15:35:33;4.60;99.90
38910;DHT22;24676;51.360;12.354;2023-01-31T15:38:28;4.50;99.90
38910;DHT22;24676;51.360;12.354;2023-01-31T15:41:19;4.60;99.90
38910;DHT22;24676;51.360;12.354;2023-01-31T15:46:58;4.70;99.90
38910;DHT22;24676;51.360;12.354;2023-01-31T15:49:43;4.70;99.90
38910;DHT22;24676;51.360;12.354;2023-01-31T15:52:31;4.80;99.90
38910;DHT22;24676;51.360;12.354;2023-01-31T15:55:18;4.80;99.90
38910;DHT22;24676;51.360;12.354;2023-01-31T15:58:03;4.90;99.90
38910;DHT22;24676;51.360;12.354;2023-01-31T16:00:52;5.00;99.90
38910;DHT22;24676;51.360;12.354;2023-01-31T16:03:40;5.00;99.90
38910;DHT22;24676;51.360;12.354;2023-01-31T16:09:31;5.10;99.90
38910;DHT22;24676;51.360;12.354;2023-01-31T16:12:16;5.10;99.90
38910;DHT22;24676;51.360;12.354;2023-01-31T16:15:04;5.10;99.90
38910;DHT22;24676;51.360;12.354;2023-01-31T16:17:52;5.20;99.90
38910;DHT22;24676;51.360;12.354;2023-01-31T16:23:25;5.20;99.90
38910;DHT22;24676;51.360;12.354;2023-01-31T16:29:06;5.20;99.90
38910;DHT22;24676;51.360;12.354;2023-01-31T16:31:53;5.30;99.90
38910;DHT22;24676;51.360;12.354;2023-01-31T16:34:38;5.30;99.90
38910;DHT22;24676;51.360;12.354;2023-01-31T16:37:39;5.30;99.90
38910;DHT22;24676;51.360;12.354;2023-01-31T16:40:27;5.30;99.90
38910;DHT22;24676;51.360;12.354;2023-01-31T16:43:20;5.30;99.90
38910;DHT22;24676;51.360;12.354;2023-01-31T16:46:20;5.30;99.90
38910;DHT22;24676;51.360;12.354;2023-01-31T16:52:16;5.30;99.90
38910;DHT22;24676;51.360;12.354;2023-01-31T16:55:01;5.30;99.90
38910;DHT22;24676;51.360;12.354;2023-01-31T16:57:45;5.40;99.90
38910;DHT22;24676;51.360;12.354;2023-01-31T17:00:33;5.40;99.90
38910;DHT22;24676;51.360;12.354;2023-01-31T17:03:18;5.40;99.90
38910;DHT22;24676;51.360;12.354;2023-01-31T17:06:03;5.40;99.90
38910;DHT22;24676;51.360;12.354;2023-01-31T17:08:49;5.40;99.90
38910;DHT22;24676;51.360;12.354;2023-01-31T17:11:33;5.30;99.90
38910;DHT22;24676;51.360;12.354;2023-01-31T17:14:17;5.30;99.90
38910;DHT22;24676;51.360;12.354;2023-01-31T17:17:02;5.30;99.90
38910;DHT22;24676;51.360;12.354;2023-01-31T17:19:46;5.40;99.90
38910;DHT22;24676;51.360;12.354;2023-01-31T17:22:31;5.40;99.90
38910;DHT22;24676;51.360;12.354;2023-01-31T17:25:17;5.40;99.90
38910;DHT22;24676;51.360;12.354;2023-01-31T17:28:03;5.40;99.90
38910;DHT22;24676;51.360;12.354;2023-01-31T17:30:48;5.40;99.90
38910;DHT22;24676;51.360;12.354;2023-01-31T17:33:32;5.40;99.90
38910;DHT22;24676;51.360;12.354;2023-01-31T17:36:16;5.30;99.90
38910;DHT22;24676;51.360;12.354;2023-01-31T17:39:01;5.30;99.90
38910;DHT22;24676;51.360;12.354;2023-01-31T17:41:45;5.20;99.90
38910;DHT22;24676;51.360;12.354;2023-01-31T17:44:30;5.30;99.90
38910;DHT22;24676;51.360;12.354;2023-01-31T17:47:14;5.30;99.90
38910;DHT22;24676;51.360;12.354;2023-01-31T17:49:58;5.30;99.90
38910;DHT22;24676;51.360;12.354;2023-01-31T17:52:43;5.30;99.90
38910;DHT22;24676;51.360;12.354;2023-01-31T17:55:29;5.30;99.90
38910;DHT22;24676;51.360;12.354;2023-01-31T17:58:14;5.30;99.90
38910;DHT22;24676;51.360;12.354;2023-01-31T18:01:01;5.30;99.90
38910;DHT22;24676;51.360;12.354;2023-01-31T18:03:45;5.30;99.90
38910;DHT22;24676;51.360;12.354;2023-01-31T18:06:30;5.30;99.90
38910;DHT22;24676;51.360;12.354;2023-01-31T18:09:14;5.20;99.90
38910;DHT22;24676;51.360;12.354;2023-01-31T18:12:03;5.20;99.90
38910;DHT22;24676;51.360;12.354;2023-01-31T18:14:47;5.20;99.90
38910;DHT22;24676;51.360;12.354;2023-01-31T18:17:32;5.20;99.90
38910;DHT22;24676;51.360;12.354;2023-01-31T18:20:16;5.20;99.90
38910;DHT22;24676;51.360;12.354;2023-01-31T18:23:02;5.20;99.90
38910;DHT22;24676;51.360;12.354;2023-01-31T18:25:46;5.20;99.90
38910;DHT22;24676;51.360;12.354;2023-01-31T18:28:30;5.30;99.90
38910;DHT22;24676;51.360;12.354;2023-01-31T18:31:16;5.30;99.90
38910;DHT22;24676;51.360;12.354;2023-01-31T18:34:00;5.40;99.90
38910;DHT22;24676;51.360;12.354;2023-01-31T18:36:44;5.40;99.90
38910;DHT22;24676;51.360;12.354;2023-01-31T18:39:28;5.40;99.90
38910;DHT22;24676;51.360;12.354;2023-01-31T18:42:13;5.50;99.90
38910;DHT22;24676;51.360;12.354;2023-01-31T18:44:57;5.50;99.90
38910;DHT22;24676;51.360;12.354;2023-01-31T18:47:41;5.50;99.90
38910;DHT22;24676;51.360;12.354;2023-01-31T18:50:25;5.50;99.90
38910;DHT22;24676;51.360;12.354;2023-01-31T18:53:10;5.50;99.90
38910;DHT22;24676;51.360;12.354;2023-01-31T18:55:59;5.50;99.90
38910;DHT22;24676;51.360;12.354;2023-01-31T18:58:44;5.50;99.90
38910;DHT22;24676;51.360;12.354;2023-01-31T19:01:29;5.50;99.90
38910;DHT22;24676;51.360;12.354;2023-01-31T19:04:13;5.50;99.90
38910;DHT22;24676;51.360;12.354;2023-01-31T19:06:58;5.50;99.90
38910;DHT22;24676;51.360;12.354;2023-01-31T19:09:42;5.50;99.90
38910;DHT22;24676;51.360;12.354;2023-01-31T19:12:26;5.40;99.90
38910;DHT22;24676;51.360;12.354;2023-01-31T19:15:11;5.30;99.90
38910;DHT22;24676;51.360;12.354;2023-01-31T19:17:56;5.20;99.90
38910;DHT22;24676;51.360;12.354;2023-01-31T19:20:40;5.10;99.90
38910;DHT22;24676;51.360;12.354;2023-01-31T19:23:24;5.10;99.90
38910;DHT22;24676;51.360;12.354;2023-01-31T19:26:09;5.00;99.90
38910;DHT22;24676;51.360;12.354;2023-01-31T19:28:54;5.00;99.90
38910;DHT22;24676;51.360;12.354;2023-01-31T19:31:39;5.00;99.90
38910;DHT22;24676;51.360;12.354;2023-01-31T19:34:23;5.00;99.90
38910;DHT22;24676;51.360;12.354;2023-01-31T19:37:07;5.00;99.90
38910;DHT22;24676;51.360;12.354;2023-01-31T19:39:51;5.00;99.90
38910;DHT22;24676;51.360;12.354;2023-01-31T19:42:35;5.00;99.90
38910;DHT22;24676;51.360;12.354;2023-01-31T19:45:20;5.10;99.90
38910;DHT22;24676;51.360;12.354;2023-01-31T19:48:05;5.10;99.90
38910;DHT22;24676;51.360;12.354;2023-01-31T19:50:49;5.10;99.90
38910;DHT22;24676;51.360;12.354;2023-01-31T19:53:34;5.20;99.90
38910;DHT22;24676;51.360;12.354;2023-01-31T19:56:19;5.30;99.90
38910;DHT22;24676;51.360;12.354;2023-01-31T19:59:04;5.20;99.90
38910;DHT22;24676;51.360;12.354;2023-01-31T20:01:52;5.30;99.90
38910;DHT22;24676;51.360;12.354;2023-01-31T20:04:36;5.30;99.90
38910;DHT22;24676;51.360;12.354;2023-01-31T20:07:20;5.30;99.90
38910;DHT22;24676;51.360;12.354;2023-01-31T20:10:05;5.40;99.90